createdAt,value
2022-11-24T02:51:00.812Z,1.42
2022-11-24T02:53:28.164Z,1.85
2022-11-24T02:55:55.211Z,1.89
2022-11-24T02:58:22.361Z,1.95
2022-11-24T03:00:54.533Z,2.04
2022-11-24T03:03:22.189Z,2.09
2022-11-24T03:05:49.444Z,2.10
2022-11-24T03:08:16.795Z,2.08
2022-11-24T03:10:44.149Z,2.05
2022-11-24T03:13:14.577Z,2.02
2022-11-24T03:15:41.808Z,2.05
2022-11-24T03:18:11.438Z,2.12
2022-11-24T03:20:38.693Z,2.14
2022-11-24T03:23:05.847Z,2.12
2022-11-24T03:25:35.555Z,2.09
2022-11-24T03:28:03.056Z,2.05
2022-11-24T03:30:30.661Z,2.02
2022-11-24T03:32:57.735Z,2.06
2022-11-24T03:35:26.295Z,2.12
2022-11-24T03:37:53.959Z,2.15
2022-11-24T03:40:21.106Z,2.13
2022-11-24T03:42:48.359Z,2.10
2022-11-24T03:45:44.922Z,2.04
2022-11-24T03:48:03.031Z,1.99
2022-11-24T03:50:30.289Z,2.01
2022-11-24T03:52:57.945Z,2.07
2022-11-24T03:55:25.424Z,2.10
2022-11-24T03:57:52.667Z,2.08
2022-11-24T04:00:20.112Z,2.04
2022-11-24T04:02:48.621Z,1.99
2022-11-24T04:05:15.846Z,1.94
2022-11-24T04:07:43.267Z,1.90
2022-11-24T04:10:10.556Z,1.92
2022-11-24T04:12:46.787Z,1.99
2022-11-24T04:15:18.536Z,2.00
2022-11-24T04:17:46.579Z,1.98
2022-11-24T04:20:18.812Z,1.95
2022-11-24T04:22:49.709Z,1.91
2022-11-24T23:32:09.594Z,2.12
2022-11-24T23:34:36.781Z,2.16
2022-11-24T23:37:03.882Z,2.16
2022-11-24T23:39:30.776Z,2.21
2022-11-24T23:41:57.968Z,2.29
2022-11-24T23:44:24.766Z,2.32
2022-11-24T23:46:51.610Z,2.29
2022-11-24T23:49:18.350Z,2.26
2022-11-24T23:51:47.560Z,2.21
2022-11-24T23:54:16.273Z,2.16
2022-11-24T23:56:47.889Z,2.17
2022-11-24T23:59:14.630Z,2.23
